Ushibuka, Japan

8:47 AM JST on September 24, 2014 (GMT +0900)
Nagasaki | Change Station
CLOSE
Current Station
Airport
Location: Nagasaki Airport,
Elevation: 16 ft
Nearby Weather Stations

Elev 16 ft 32.92 °N, 129.91 °E | Updated 37 minutes ago

Rain Showers
Showers Rain
77 °F
Feels Like 77 °F
N
20
Wind Variable Wind from SE

Today
High -- | Low -- °F
--% Chance of Precip.
Yesterday
High -- | Low -- °F
Precip. -- in
6:08 AM 6:14 PM
Waning Crescent, 0% visible
Pressure 29.83 in
Visibility 4.3 miles
Clouds Few 2000 ft
Mostly Cloudy 3000 ft
Dew Point 72 °F
Humidity 83%
Rainfall 0.11 in
Snow Depth Not available.
UV 1 out of 12
Pollen Not available.
Air Quality Not available.
Flu Activity Not available.
SPECI RJFU 232310Z 14017KT 7000 SHRA FEW020 BKN030 25/22 Q1010 RMK 1CU020 6CU030 A2984

More Conditions Fewer Conditions

Pressure 29.83 in
Visibility 4.3 miles
Clouds Few 2000 ft
Mostly Cloudy 3000 ft
Dew Point 72 °F
Humidity 83%
Rainfall 0.11 in
Snow Depth Not available.
UV 1 out of 12
Pollen Not available.
Air Quality Not available.
Flu Activity Not available.
SPECI RJFU 232310Z 14017KT 7000 SHRA FEW020 BKN030 25/22 Q1010 RMK 1CU020 6CU030 A2984

More Conditions Fewer Conditions

10-Day Weather Forecast

Almanac

Astronomy

Sep. 24, 2014 Rise Set
Actual Time 6:08 AM JST 6:14 PM JST
Civil Twilight 5:44 AM JST 6:39 PM JST
Nautical Twilight 5:16 AM JST 7:07 PM JST
Astronomical Twilight 4:47 AM JST 7:36 PM JST
Moon 5:54 AM JST (9/24) 6:07 PM JST (9/24)
Length of Visible Light 12h 54m
Length of Day
12h 05m
Tomorrow will be 1m 57s shorter.
Waning Crescent, 0% of the Moon is Illuminated
Sep 23
Waning Crescent
Sep 24
New
Oct 1
First Quarter
Oct 8
Full
Oct 15
Last Quarter

Yesterday's Extremes

Country Highs Country Lows

Community

WunderPhotos

Upload Photos

1,755,821 photos uploaded!

WunderBlogs® & News

Nearby

Snow Depth

Not available.

Earthquake Activity

City Distance Mag. Time & Date
No recent earthquake activity has been reported nearby.
Minimum magnitude displayed is 2.5.

Coastal Water Temperatures

Place Temperature
No Stations Reporting

Nearby Weather Stations